Change the Weather History Date:

Friday, May 3, 2013

  Actual Average Record
Temperature  
Mean Temperature 40 °F -  
Max Temperature 53 °F 67 °F 95 °F (1955)
Min Temperature 26 °F 40 °F 25 °F (1954)
Degree Days  
Heating Degree Days 26    
Moisture  
Dew Point 23 °F    
Average Humidity 55    
Maximum Humidity 93    
Minimum Humidity 24    
Precipitation  
Precipitation 0.00 in - - ()
Sea Level Pressure  
Sea Level Pressure 30.27 in    
Wind  
Wind Speed 10 mph (North)    
Max Wind Speed 21 mph    
Max Gust Speed 30 mph    
Visibility 10 miles    
Events      
Averages and records for this station are not official NWS values.
T = Trace of Precipitation, MM = Missing Value Source: NWS Daily Summary

Daily Weather History Graph

Daily Weather History Graph

Search for Another Location

Airport or City:

Trip Planner

Search our weather history database for the weather conditions in past years. The results will help you decide how hot, cold, wet, or windy it might be!

Date:

Astronomy

May. 03, 2013 Rise Set
Actual Time 6:20 AM CDT 8:32 PM CDT
Civil Twilight 5:49 AM CDT 9:04 PM CDT
Nautical Twilight 5:10 AM CDT 9:43 PM CDT
Astronomical Twilight 4:28 AM CDT 10:25 PM CDT
Moon 2:55 AM CDT (5/3) 2:20 PM CDT (5/3)
Length of Visible Light 15h 15m
Length of Day
14h 12m
Last Quarter, 37% of the Moon is Illuminated
May 3
Last Quarter
May 9
New
May 17
First Quarter
May 24
Full
May 31
Last Quarter

Hourly Weather History & Observations

Time (CDT) Temp. Windchill Dew Point Humidity Pressure Visibility Wind Dir Wind Speed Gust Speed Precip Events Conditions
12:15 AM 35.6 °F 29.2 °F 23.0 °F 60% 30.44 in 10.0 mi North 8.1 mph - N/A   Clear
12:35 AM 35.6 °F 29.2 °F 24.8 °F 65% 30.44 in 10.0 mi North 8.1 mph - N/A   Clear
12:55 AM 35.6 °F 30.7 °F 24.8 °F 65% 30.44 in 10.0 mi North 5.8 mph - N/A   Clear
1:15 AM 35.6 °F 29.9 °F 23.0 °F 60% 30.44 in 10.0 mi NNE 6.9 mph - N/A   Clear
1:35 AM 33.8 °F 29.6 °F 23.0 °F 65% 30.43 in 10.0 mi NNE 4.6 mph - N/A   Clear
1:55 AM 33.8 °F 27.7 °F 24.8 °F 70% 30.42 in 10.0 mi NE 6.9 mph - N/A   Clear
2:15 AM 32.0 °F 28.7 °F 24.8 °F 75% 30.42 in 10.0 mi North 3.5 mph - N/A   Clear
2:35 AM 32.0 °F 28.7 °F 24.8 °F 75% 30.41 in 10.0 mi NNW 3.5 mph - N/A   Clear
2:55 AM 30.2 °F 24.3 °F 24.8 °F 80% 30.40 in 10.0 mi NW 5.8 mph - N/A   Clear
3:15 AM 30.2 °F 24.3 °F 23.0 °F 75% 30.40 in 10.0 mi NNW 5.8 mph - N/A   Clear
3:35 AM 28.4 °F 23.3 °F 23.0 °F 80% 30.40 in 10.0 mi NNW 4.6 mph - N/A   Clear
3:55 AM 30.2 °F 25.4 °F 24.8 °F 80% 30.39 in 10.0 mi North 4.6 mph - N/A   Clear
4:15 AM 28.4 °F 22.2 °F 24.8 °F 86% 30.39 in 10.0 mi NW 5.8 mph - N/A   Clear
4:35 AM 28.4 °F 21.2 °F 23.0 °F 80% 30.39 in 10.0 mi NW 6.9 mph - N/A   Clear
4:55 AM 26.6 °F 21.2 °F 21.2 °F 80% 30.39 in 10.0 mi NW 4.6 mph - N/A   Clear
5:15 AM 26.6 °F 18.2 °F 23.0 °F 86% 30.38 in 10.0 mi WNW 8.1 mph - N/A   Clear
5:35 AM 26.6 °F 18.2 °F 21.2 °F 80% 30.37 in 10.0 mi WNW 8.1 mph - N/A   Clear
5:55 AM 26.6 °F 18.2 °F 23.0 °F 86% 30.37 in 10.0 mi WNW 8.1 mph - N/A   Clear
6:15 AM 26.6 °F 19.1 °F 23.0 °F 86% 30.37 in 10.0 mi NW 6.9 mph - N/A   Clear
6:35 AM 26.6 °F 18.2 °F 24.8 °F 93% 30.38 in 10.0 mi WNW 8.1 mph - N/A   Clear
6:55 AM 26.6 °F 18.2 °F 23.0 °F 86% 30.38 in 9.0 mi NW 8.1 mph - N/A   Clear
7:15 AM 28.4 °F 19.7 °F 24.8 °F 86% 30.38 in 10.0 mi WNW 9.2 mph - N/A   Clear
7:35 AM 28.4 °F 19.1 °F 24.8 °F 86% 30.37 in 9.0 mi NW 10.4 mph - N/A   Clear
7:55 AM 30.2 °F 20.2 °F 24.8 °F 80% 30.37 in 10.0 mi NW 12.7 mph - N/A   Clear
8:15 AM 30.2 °F 20.2 °F 26.6 °F 86% 30.36 in 10.0 mi NNW 12.7 mph - N/A   Clear
8:35 AM 30.2 °F 20.8 °F 26.6 °F 86% 30.36 in 10.0 mi NNW 11.5 mph - N/A   Clear
8:55 AM 32.0 °F 23.6 °F 24.8 °F 75% 30.36 in 10.0 mi NNW 10.4 mph - N/A   Clear
9:15 AM 33.8 °F 25.8 °F 26.6 °F 75% 30.36 in 10.0 mi North 10.4 mph - N/A   Clear
9:35 AM 35.6 °F 28.0 °F 24.8 °F 65% 30.34 in 10.0 mi NNW 10.4 mph - N/A   Clear
9:55 AM 35.6 °F 28.0 °F 24.8 °F 65% 30.33 in 10.0 mi NNW 10.4 mph - N/A   Clear
10:15 AM 37.4 °F 29.3 °F 24.8 °F 60% 30.33 in 10.0 mi North 12.7 mph - N/A   Clear
10:35 AM 37.4 °F 30.8 °F 24.8 °F 60% 30.32 in 10.0 mi NNE 9.2 mph - N/A   Clear
10:55 AM 39.2 °F 32.0 °F 24.8 °F 56% 30.31 in 10.0 mi North 11.5 mph - N/A   Clear
11:15 AM 39.2 °F 31.2 °F 24.8 °F 56% 30.31 in 10.0 mi NNW 13.8 mph - N/A   Clear
11:35 AM 41.0 °F 33.5 °F 26.6 °F 57% 30.29 in 10.0 mi North 13.8 mph 18.4 mph N/A   Clear
11:55 AM 42.8 °F 36.2 °F 26.6 °F 53% 30.28 in 10.0 mi North 12.7 mph 21.9 mph N/A   Clear
12:15 PM 42.8 °F 35.1 °F 24.8 °F 49% 30.26 in 10.0 mi NNW 16.1 mph 20.7 mph N/A   Clear
12:35 PM 44.6 °F 38.4 °F 24.8 °F 46% 30.25 in 10.0 mi NNW 12.7 mph 23.0 mph N/A   Clear
12:55 PM 46.4 °F 39.8 °F 26.6 °F 46% 30.24 in 10.0 mi NNW 16.1 mph 24.2 mph N/A   Clear
1:15 PM 46.4 °F 39.8 °F 24.8 °F 43% 30.23 in 10.0 mi NNW 16.1 mph 26.5 mph N/A   Clear
1:35 PM 46.4 °F 40.4 °F 24.8 °F 43% 30.22 in 10.0 mi North 13.8 mph 23.0 mph N/A   Clear
1:55 PM 48.2 °F - 24.8 °F 40% 30.21 in 10.0 mi North 19.6 mph 27.6 mph N/A   Clear
2:15 PM 48.2 °F - 24.8 °F 40% 30.21 in 10.0 mi North 15.0 mph 24.2 mph N/A   Clear
2:35 PM 50.0 °F - 24.8 °F 37% 30.20 in 10.0 mi North 20.7 mph 27.6 mph N/A   Clear
2:55 PM 50.0 °F - 23.0 °F 35% 30.19 in 10.0 mi NNW 16.1 mph 25.3 mph N/A   Clear
3:15 PM 51.8 °F - 23.0 °F 33% 30.18 in 10.0 mi NNW 17.3 mph 29.9 mph N/A   Clear
3:35 PM 51.8 °F - 21.2 °F 30% 30.17 in 10.0 mi North 18.4 mph 25.3 mph N/A   Clear
3:55 PM 51.8 °F - 21.2 °F 30% 30.16 in 10.0 mi North 18.4 mph 28.8 mph N/A   Clear
4:15 PM 53.6 °F - 19.4 °F 26% 30.15 in 10.0 mi NNW 18.4 mph 23.0 mph N/A   Clear
4:35 PM 53.6 °F - 17.6 °F 24% 30.14 in 10.0 mi North 19.6 mph 25.3 mph N/A   Clear
4:55 PM 53.6 °F - 19.4 °F 26% 30.14 in 10.0 mi NNE 16.1 mph 25.3 mph N/A   Clear
5:15 PM 53.6 °F - 19.4 °F 26% 30.13 in 10.0 mi North 18.4 mph 23.0 mph N/A   Clear
5:35 PM 53.6 °F - 19.4 °F 26% 30.13 in 10.0 mi NNW 17.3 mph 28.8 mph N/A   Clear
5:55 PM 53.6 °F - 17.6 °F 24% 30.12 in 10.0 mi North 16.1 mph 25.3 mph N/A   Clear
6:15 PM 53.6 °F - 17.6 °F 24% 30.12 in 10.0 mi North 19.6 mph 25.3 mph N/A   Clear
6:35 PM 53.6 °F - 17.6 °F 24% 30.12 in 10.0 mi North 18.4 mph 26.5 mph N/A   Clear
6:55 PM 53.6 °F - 17.6 °F 24% 30.12 in 10.0 mi North 16.1 mph 21.9 mph N/A   Clear
7:15 PM 51.8 °F - 17.6 °F 26% 30.12 in 10.0 mi NNE 18.4 mph - N/A   Clear
7:35 PM 50.0 °F - 19.4 °F 30% 30.12 in 10.0 mi North 19.6 mph 24.2 mph N/A   Clear
7:55 PM 50.0 °F - 19.4 °F 30% 30.13 in 10.0 mi North 15.0 mph 19.6 mph N/A   Clear
8:15 PM 48.2 °F - 21.2 °F 34% 30.13 in 10.0 mi North 13.8 mph - N/A   Clear
8:35 PM 48.2 °F - 21.2 °F 34% 30.13 in 10.0 mi North 13.8 mph - N/A   Mostly Cloudy
8:55 PM 46.4 °F 40.7 °F 21.2 °F 37% 30.12 in 10.0 mi North 12.7 mph - N/A   Overcast
9:15 PM 46.4 °F 41.1 °F 21.2 °F 37% 30.13 in 10.0 mi North 11.5 mph - N/A   Mostly Cloudy
9:35 PM 44.6 °F 39.2 °F 21.2 °F 39% 30.14 in 10.0 mi North 10.4 mph - N/A   Scattered Clouds
9:55 PM 44.6 °F 39.7 °F 23.0 °F 43% 30.14 in 10.0 mi North 9.2 mph - N/A   Clear
10:15 PM 42.8 °F 38.6 °F 23.0 °F 46% 30.15 in 10.0 mi North 6.9 mph - N/A   Clear
10:35 PM 41.0 °F 35.8 °F 24.8 °F 53% 30.14 in 10.0 mi North 8.1 mph - N/A   Clear
10:55 PM 41.0 °F 36.4 °F 24.8 °F 53% 30.14 in 10.0 mi North 6.9 mph - N/A   Partly Cloudy
11:15 PM 42.8 °F 37.5 °F 24.8 °F 49% 30.14 in 10.0 mi North 9.2 mph - N/A   Mostly Cloudy
11:35 PM 42.8 °F 37.5 °F 24.8 °F 49% 30.13 in 10.0 mi North 9.2 mph - N/A   Overcast
11:55 PM 42.8 °F 37.0 °F 24.8 °F 49% 30.13 in 10.0 mi North 10.4 mph - N/A   Overcast